• Join FlightAware (Why Join?)
  • Login
  • US Flag 
10:07AM EDT


 

Airport Tracker/Info


-or-


 

Live Flight TrackerFlight Track Log ✈ SWA2353 ✈ 10-May-2013 ✈ KPHL - KMDW

Flight Track Log - Related Links

Times and Time Zones

All times are in EDT time to prevent confusion due to time zone crossing. See the SWA2353 flight status page for this flight to view local times or setup timezone preferences in your user account.

Time Position Orientation Groundspeed Altitude Reporting Facility
EDT Latitude Longitude Course Direction KTS MPH feet Rate Location/Type
06:58PM 39.8667 -75.2833 255° West 147 169 700  Level Philadelphia TRACON
06:59PM 39.8500 -75.3667 255° West 215 247 4,100 2,580 Climbing Philadelphia TRACON
07:00PM 39.8833 -75.4167 311° West 284 327 6,200 3,600 Climbing Philadelphia TRACON
07:01PM 39.9667 -75.4500 343° North 288 331 10,600 2,640 Climbing Philadelphia TRACON
07:02PM 40.0500 -75.4833 343° North 370 426 11,800 1,200 Climbing Philadelphia TRACON
07:03PM 40.1200 -75.5183 339° North 387 445 12,800 900 Climbing New York Center
07:04PM 40.2183 -75.5658 340° North 382 440 13,500 1,680 Climbing New York Center
07:05PM 40.2892 -75.6633 314° West 366 421 16,200 1,680 Climbing New York Center
07:06PM 40.3697 -75.7808 312° West 379 436 17,000 840 Climbing New York Center
07:07PM 40.4358 -75.8919 308° West 390 449 18,000 1,920 Climbing New York Center
07:08PM 40.4561 -76.0025 284° West 360 414 20,900 2,880 Climbing New York Center
07:09PM 40.4753 -76.1322 281° West 360 414 23,700 2,340 Climbing New York Center
07:10PM 40.4983 -76.2625 283° West 360 414 25,600 1,200 Climbing New York Center
07:11PM 40.5158 -76.3811 281° West 365 420 26,200 1,140 Climbing New York Center
07:12PM 40.5433 -76.5472 282° West 381 438 28,000 900 Climbing New York Center
07:13PM 40.5736 -76.6892 286° West 388 447 28,000  Level New York Center
07:14PM 40.6089 -76.8208 289° West 393 452 28,000  Level New York Center
07:15PM 40.6456 -76.9553 290° West 393 452 28,000  Level New York Center
07:16PM 40.6803 -77.0872 289° West 393 452 28,000  Level New York Center
07:17PM 40.7167 -77.2219 290° West 393 452 28,000  Level New York Center
07:19PM 40.7861 -77.4869 289° West 381 438 28,000  Level Cleveland Center
07:20PM 40.8231 -77.6225 290° West 381 438 28,000  Level Cleveland Center
07:21PM 40.8864 -77.7375 306° West 381 438 28,000  Level Cleveland Center
07:22PM 40.9625 -77.8664 308° West 393 452 28,000  Level Cleveland Center
07:23PM 41.0236 -77.9794 306° West 393 452 28,000  Level Cleveland Center
07:24PM 41.0578 -78.1158 288° West 387 445 28,000 780 Level Cleveland Center
07:25PM 41.0775 -78.2583 280° West 387 445 29,600 1,380 Climbing Cleveland Center
07:26PM 41.0908 -78.4039 277° West 393 452 30,800 1,260 Climbing Cleveland Center
07:27PM 41.1039 -78.5550 277° West 404 465 32,200 1,380 Climbing Cleveland Center
07:28PM 41.1169 -78.7061 277° West 410 472 33,600 1,380 Climbing Cleveland Center
07:29PM 41.1297 -78.8575 276° West 415 478 35,000 1,200 Climbing Cleveland Center
07:30PM 41.1400 -78.9894 276° West 415 478 36,000 480 Climbing Cleveland Center
07:31PM 41.1525 -79.1325 277° West 403 464 36,000  Level Cleveland Center
07:32PM 41.1647 -79.2786 276° West 403 464 36,000  Level Cleveland Center
07:33PM 41.1789 -79.4356 277° West 398 458 36,000  Level Cleveland Center
07:34PM 41.1906 -79.5761 276° West 393 452 36,000  Level Cleveland Center
07:35PM 41.2000 -79.7028 276° West 393 452 36,000  Level Cleveland Center
07:36PM 41.2092 -79.8461 275° West 388 447 36,000  Level Cleveland Center
07:37PM 41.2206 -79.9842 276° West 388 447 36,000  Level Cleveland Center
07:38PM 41.2358 -80.1414 277° West 388 447 36,000  Level Cleveland Center
07:39PM 41.2444 -80.2822 275° West 388 447 36,000  Level Cleveland Center
07:40PM 41.2533 -80.4286 275° West 395 455 36,000  Level Cleveland Center
07:41PM 41.2636 -80.5692 276° West 395 455 36,000  Level Cleveland Center
07:42PM 41.2761 -80.7158 277° West 395 455 36,000  Level Cleveland Center
07:43PM 41.2842 -80.8622 274° West 395 455 36,000  Level Cleveland Center
07:44PM 41.2922 -80.9894 275° West 395 455 36,000  Level Cleveland Center
07:45PM 41.3019 -81.1386 275° West 400 460 36,000  Level Cleveland Center
07:46PM 41.3136 -81.2825 276° West 399 459 36,000  Level Cleveland Center
07:47PM 41.3253 -81.4236 276° West 399 459 36,000  Level Cleveland Center
07:48PM 41.3344 -81.5675 275° West 399 459 36,000  Level Cleveland Center
07:49PM 41.3436 -81.7144 275° West 399 459 36,000  Level Cleveland Center
07:50PM 41.3525 -81.8583 275° West 399 459 36,000  Level Cleveland Center
07:51PM 41.3611 -82.0022 275° West 399 459 36,000  Level Cleveland Center
07:52PM 41.3656 -82.1492 272° West 405 466 36,000  Level Cleveland Center
07:53PM 41.3739 -82.2986 274° West 400 460 36,000  Level Cleveland Center
07:54PM 41.3819 -82.4428 274° West 400 460 36,000  Level Cleveland Center
07:55PM 41.3900 -82.5897 274° West 406 467 36,000  Level Cleveland Center
07:56PM 41.3997 -82.7394 275° West 406 467 36,000  Level Cleveland Center
07:57PM 41.4053 -82.8836 273° West 401 461 36,000  Level Cleveland Center
07:58PM 41.4144 -83.0475 274° West 406 467 36,000  Level Cleveland Center
07:59PM 41.4200 -83.1667 274° West 406 467 36,000  Level Cleveland Center
08:00PM 41.4267 -83.3250 273° West 406 467 36,000  Level Cleveland Center
08:01PM 41.4336 -83.4719 274° West 406 467 36,000  Level Cleveland Center
08:02PM 41.4400 -83.6219 273° West 406 467 36,000 -420 Level Cleveland Center
08:03PM 41.4464 -83.7717 273° West 406 467 35,200 -900 Descending Cleveland Center
08:04PM 41.4525 -83.9217 273° West 406 467 34,300 -600 Descending Cleveland Center
08:05PM 41.4586 -84.0689 273° West 406 467 34,000 -2,160 Descending Cleveland Center
08:06PM 41.4644 -84.2133 273° West 406 467 30,000 -1,140 Descending Cleveland Center
08:08PM 41.4806 -84.5528 274° West 402 463 30,400  Climbing Chicago Center
08:09PM 41.4861 -84.6933 273° West 383 441 30,000 -240 Descending Chicago Center
08:10PM 41.4908 -84.8339 273° West 380 437 30,000 -300 Level Chicago Center
08:11PM 41.4964 -85.0014 273° West 378 435 29,400 -840 Descending Chicago Center
08:12PM 41.5003 -85.1400 272° West 373 429 28,300 -1,020 Descending Chicago Center
08:13PM 41.5047 -85.2797 272° West 373 429 27,300 -960 Descending Chicago Center
08:14PM 41.5081 -85.4244 272° West 381 438 26,400 -960 Descending Chicago Center
08:15PM 41.5136 -85.5764 273° West 399 459 25,400 -1,680 Descending Chicago Center
08:16PM 41.5169 -85.7228 272° West 393 452 23,000 -2,400 Descending Chicago Center
08:17PM 41.5206 -85.8628 272° West 379 436 20,500 -2,340 Descending Chicago Center
08:19PM 41.5239 -85.9961 272° West 363 418 18,200 -2,520 Descending Chicago Center
08:20PM 41.5242 -86.1539 270° West 355 409 15,300 -2,580 Descending Chicago Center
08:21PM 41.5228 -86.2808 269° West 346 398 12,900 -2,100 Descending Chicago Center
08:22PM 41.5231 -86.4058 270° West 340 391 11,000 -1,440 Descending Chicago Center
08:23PM 41.5222 -86.5275 270° West 330 380 10,000 -540 Descending Chicago Center
08:24PM 41.5203 -86.6478 269° West 327 376 10,000 -240 Level Chicago Center
08:25PM 41.5203 -86.7631 270° West 303 349 9,600 -720 Descending Chicago Center
08:26PM 41.5178 -86.8628 268° West 274 315 8,600 -1,080 Descending Chicago Center
08:27PM 41.5172 -86.9811 270° West 268 308 7,400 -1,080 Descending Chicago Center
08:28PM 41.5186 -87.0803 271° West 269 310 6,400 -840 Descending Chicago Center
08:29PM 41.5461 -87.1678 293° West 259 298 5,700 -780 Descending Chicago Center
08:30PM 41.5714 -87.2583 290° West 259 298 4,900 -780 Descending Chicago Center
08:31PM 41.6000 -87.3667 289° West 259 298 4,200 -540 Descending Chicago TRACON
08:32PM 41.6167 -87.4500 285° West 245 282 3,900 -120 Descending Chicago TRACON
08:33PM 41.6500 -87.5167 304° West 214 246 4,000  Climbing Chicago TRACON
08:34PM 41.6667 -87.5833 289° West 214 246 3,900 -720 Descending Chicago TRACON
08:35PM 41.7167 -87.6500 315° West 192 221 2,600 -1,080 Descending Chicago TRACON
08:36PM 41.7333 -87.6833 304° West 149 171 1,700 -780 Descending Chicago TRACON
08:37PM 41.7667 -87.7333 312° West 120 138 1,000 -660 Descending Chicago TRACON
08:39PM 41.7833 -87.7500 334° Northwest  Level FlightAware Approximate
08:46PM 41.7860 -87.7524 334° Northwest  Level Estimated